LIRF/FCO METAR and TAF weather

Enter ICAO airport designator
Station Type Date Time Source
LIRF METAR 2021/02/24 16:50 UTC NOAA

LIRF 241650Z 28002KT CAVOK 14/11 Q1031 NOSIG


Station Type Date Time Source
LIRF Decoded METAR 2021/02/24 16:50 UTC NOAA

Roma Fiumicino, Italy (LIRF) 41-48N 012-14E 3M
Feb 24, 2021 - 11:50 AM EST / 2021.02.24 1650 UTC
Wind: from the W (280 degrees) at 2 MPH (2 KT):0
Visibility: greater than 7 mile(s):0
Temperature: 57 F (14 C)
Dew Point: 51 F (11 C)
Relative Humidity: 82%
Pressure (altimeter): 30.45 in. Hg (1031 hPa)
ob: LIRF 241650Z 28002KT CAVOK 14/11 Q1031 NOSIG
cycle: 17

Station Type Date Time Source
LIRF TAF 2021/02/24 12:21 UTC NOAA

TAF LIRF 241100Z 2412/2518 26010KT CAVOK
BECMG 2418/2420 VRB04KT
BECMG 2421/2423 4000 BR
TEMPO 2500/2507 0800 BCFG
BECMG 2507/2509 9999
BECMG 2508/2510 28010KT

Example: see airport list